Time;durP1;ratioP1;P1;durP2;ratioP2;P2;SDS_P1;SDS_P2;PMS_P1;PMS_P2;Temp;Humidity;BMP_temperature;BMP_pressure;BME280_temperature;BME280_humidity;BME280_pressure;Samples;Min_cycle;Max_cycle;Signal;HPM_P1;HPM_P2
2021/04/22 00:00:17;;;;;;;11.30;8.73;;;;;;;8.28;74.85;101140.16;1817211;77;20931;-75
2021/04/22 00:02:45;;;;;;;10.05;7.87;;;;;;;8.26;74.82;101147.20;1816720;79;20985;-76
2021/04/22 00:05:33;;;;;;;10.43;9.03;;;;;;;8.23;74.83;101147.34;1817309;79;21377;-75
2021/04/22 00:08:01;;;;;;;10.48;8.38;;;;;;;8.21;74.96;101153.09;1817010;77;20942;-75
2021/04/22 00:10:35;;;;;;;14.33;9.93;;;;;;;8.18;74.95;101154.07;1817343;79;21388;-75
2021/04/22 00:13:03;;;;;;;14.50;10.30;;;;;;;8.17;74.87;101156.27;1817108;78;20947;-75
2021/04/22 00:15:31;;;;;;;11.28;9.30;;;;;;;8.15;74.86;101153.34;1817417;78;21332;-75
2021/04/22 00:17:59;;;;;;;12.03;9.95;;;;;;;8.10;74.85;101156.14;1817432;79;21184;-74
2021/04/22 00:20:29;;;;;;;11.22;9.08;;;;;;;8.05;74.90;101153.72;1817365;79;20997;-75
2021/04/22 00:22:59;;;;;;;10.55;8.93;;;;;;;8.02;74.97;101154.29;1817717;77;21462;-76
2021/04/22 00:25:27;;;;;;;12.05;8.70;;;;;;;7.99;75.09;101159.19;1818341;78;21420;-75
2021/04/22 00:27:58;;;;;;;18.52;9.45;;;;;;;7.97;75.18;101159.70;1817574;79;21444;-75
2021/04/22 00:30:27;;;;;;;10.95;9.85;;;;;;;7.95;75.35;101164.13;1787109;79;21805;-74
2021/04/22 00:32:55;;;;;;;11.28;9.23;;;;;;;7.95;75.32;101168.05;1817389;79;21053;-74
2021/04/22 00:35:23;;;;;;;13.78;10.40;;;;;;;7.94;75.29;101170.28;1817364;77;21014;-74
2021/04/22 00:37:52;;;;;;;10.50;9.40;;;;;;;7.94;75.20;101167.67;1817436;77;20871;-74
2021/04/22 00:40:23;;;;;;;10.90;9.70;;;;;;;7.94;75.09;101172.89;1817460;79;20931;-74
2021/04/22 00:42:51;;;;;;;10.98;9.73;;;;;;;7.89;75.17;101172.20;1817484;79;21412;-74
2021/04/22 00:45:20;;;;;;;9.40;8.40;;;;;;;7.88;75.24;101177.05;1817309;78;20927;-73
2021/04/22 00:47:48;;;;;;;14.58;9.98;;;;;;;7.87;75.35;101173.59;1817402;79;21010;-75
2021/04/22 00:50:23;;;;;;;12.93;9.80;;;;;;;7.87;75.36;101176.20;1817412;78;21479;-74
2021/04/22 00:52:55;;;;;;;10.95;9.73;;;;;;;7.88;75.33;101179.66;1817886;79;21341;-73
2021/04/22 00:55:23;;;;;;;13.72;10.15;;;;;;;7.87;75.20;101181.89;1817886;79;22320;-72
2021/04/22 00:57:51;;;;;;;11.75;10.53;;;;;;;7.84;75.15;101180.69;1818368;79;20899;-74
2021/04/22 01:00:27;;;;;;;13.80;10.18;;;;;;;7.80;75.16;101179.10;1819225;79;20974;-73
2021/04/22 01:02:55;;;;;;;10.10;8.95;;;;;;;7.77;75.15;101182.69;1818771;78;20979;-74
2021/04/22 01:05:30;;;;;;;11.85;9.55;;;;;;;7.76;75.23;101183.61;1817868;79;20935;-73
2021/04/22 01:07:58;;;;;;;12.90;9.78;;;;;;;7.73;75.32;101185.02;1817139;78;21322;-74
2021/04/22 01:10:26;;;;;;;12.28;9.33;;;;;;;7.72;75.48;101187.72;1817439;79;21357;-74
2021/04/22 01:12:54;;;;;;;12.43;10.35;;;;;;;7.69;75.61;101183.44;1817360;79;20891;-73
2021/04/22 01:15:25;;;;;;;13.48;10.80;;;;;;;7.67;75.65;101182.21;1817265;79;20879;-73
2021/04/22 01:17:56;;;;;;;13.35;10.75;;;;;;;7.64;75.71;101185.38;1817488;79;21568;-74
2021/04/22 01:20:28;;;;;;;13.93;11.10;;;;;;;7.58;75.82;101187.79;1817464;78;21380;-72
2021/04/22 01:22:58;;;;;;;12.25;10.28;;;;;;;7.53;75.91;101185.79;1817162;77;21049;-72
2021/04/22 01:25:29;;;;;;;13.75;10.82;;;;;;;7.48;76.04;101185.97;1817345;79;21625;-72
2021/04/22 01:27:57;;;;;;;10.80;9.50;;;;;;;7.42;76.29;101187.95;1817232;77;21006;-74
2021/04/22 01:30:32;;;;;;;11.65;9.85;;;;;;;7.38;76.46;101185.94;1817351;79;20955;-73
2021/04/22 01:33:01;;;;;;;14.83;10.45;;;;;;;7.36;76.67;101188.18;1817398;78;21358;-74
2021/04/22 01:35:33;;;;;;;12.98;10.08;;;;;;;7.33;76.84;101185.70;1817391;79;21002;-73
2021/04/22 01:38:03;;;;;;;15.63;11.75;;;;;;;7.30;76.91;101188.44;1817359;79;20907;-74
2021/04/22 01:40:31;;;;;;;18.20;12.98;;;;;;;7.26;76.99;101187.69;1817313;78;20926;-74
2021/04/22 01:42:59;;;;;;;16.30;10.65;;;;;;;7.22;77.14;101193.92;1817294;79;20966;-74
2021/04/22 01:45:28;;;;;;;14.87;10.98;;;;;;;7.17;77.25;101188.88;1817289;77;21351;-73
2021/04/22 01:47:56;;;;;;;13.68;11.73;;;;;;;7.13;77.37;101196.41;1817257;77;21045;-74
2021/04/22 01:50:28;;;;;;;12.82;10.85;;;;;;;7.12;77.42;101193.41;1817305;79;20946;-73
2021/04/22 01:52:56;;;;;;;11.75;10.55;;;;;;;7.09;77.58;101190.90;1817428;79;21626;-74
2021/04/22 01:55:36;;;;;;;15.93;11.55;;;;;;;7.10;77.67;101196.98;1817366;77;20931;-74
2021/04/22 01:58:05;;;;;;;14.45;11.50;;;;;;;7.08;77.75;101196.19;1817326;79;21380;-74
2021/04/22 02:00:40;;;;;;;14.03;11.83;;;;;;;7.08;77.76;101198.80;1817406;79;21504;-72
2021/04/22 02:03:09;;;;;;;16.10;11.85;;;;;;;7.07;77.79;101201.87;1817381;79;20986;-72
2021/04/22 02:05:37;;;;;;;14.38;10.55;;;;;;;7.03;77.82;101195.90;1817285;77;21527;-72
2021/04/22 02:08:06;;;;;;;25.95;20.05;;;;;;;7.00;77.78;101197.33;1817292;79;20966;-73
2021/04/22 02:10:36;;;;;;;15.65;12.03;;;;;;;6.99;77.86;101198.67;1817306;78;21347;-72
2021/04/22 02:13:05;;;;;;;14.15;10.90;;;;;;;6.95;77.95;101198.38;1817353;78;21352;-73
2021/04/22 02:15:33;;;;;;;14.18;10.93;;;;;;;6.94;78.12;101207.97;1817293;78;20919;-75
2021/04/22 02:18:01;;;;;;;14.47;11.45;;;;;;;6.92;78.23;101207.16;1817272;79;21563;-73
2021/04/22 02:20:30;;;;;;;15.78;12.13;;;;;;;6.92;78.36;101211.53;1817322;79;21542;-73
2021/04/22 02:22:58;;;;;;;14.55;11.78;;;;;;;6.91;78.42;101211.12;1817245;77;21807;-76
2021/04/22 02:25:27;;;;;;;14.43;11.48;;;;;;;6.90;78.53;101212.89;1817202;78;21022;-73
2021/04/22 02:27:56;;;;;;;13.95;11.83;;;;;;;6.90;78.49;101209.44;1829345;78;20978;-73
2021/04/22 02:30:30;;;;;;;12.23;10.68;;;;;;;6.91;78.47;101220.25;1832277;78;20922;-74
2021/04/22 02:33:00;;;;;;;12.37;11.18;;;;;;;6.88;78.61;101221.21;1832394;77;20902;-74
2021/04/22 02:35:31;;;;;;;13.80;10.85;;;;;;;6.88;78.72;101225.12;1832321;78;22187;-75
2021/04/22 02:38:00;;;;;;;13.70;10.15;;;;;;;6.88;78.77;101230.34;1832222;77;21001;-74
2021/04/22 02:40:29;;;;;;;18.10;13.53;;;;;;;6.92;78.82;101233.70;1832370;78;21014;-73
2021/04/22 02:42:58;;;;;;;17.55;15.53;;;;;;;6.92;78.83;101233.23;1832277;78;20977;-74
2021/04/22 02:45:29;;;;;;;15.88;13.55;;;;;;;6.93;78.79;101241.45;1832395;78;21020;-76
2021/04/22 02:47:57;;;;;;;17.45;13.53;;;;;;;6.92;78.79;101253.25;1832441;78;22283;-76
2021/04/22 02:50:29;;;;;;;19.75;12.43;;;;;;;6.92;78.77;101256.70;1832272;77;21052;-74
2021/04/22 02:52:57;;;;;;;14.15;11.53;;;;;;;6.90;78.84;101251.99;1832461;78;21005;-76
2021/04/22 02:55:25;;;;;;;13.93;11.33;;;;;;;6.83;79.09;101247.44;1832337;78;20930;-74
2021/04/22 02:57:55;;;;;;;15.43;10.40;;;;;;;6.87;79.25;101257.75;1828280;78;20949;-76
2021/04/22 03:00:23;;;;;;;16.42;11.73;;;;;;;6.86;79.32;101259.52;1832469;78;21363;-76
2021/04/22 03:02:51;;;;;;;11.18;10.05;;;;;;;6.90;79.32;101258.97;1832266;78;20899;-74
2021/04/22 03:05:19;;;;;;;12.80;10.48;;;;;;;6.94;79.28;101267.09;1832303;78;20967;-75
2021/04/22 03:07:47;;;;;;;19.23;12.63;;;;;;;6.94;79.26;101264.48;1832295;77;20941;-75
2021/04/22 03:10:17;;;;;;;14.40;11.18;;;;;;;6.95;79.23;101267.48;1832456;78;21546;-75
2021/04/22 03:12:46;;;;;;;12.43;11.12;;;;;;;6.95;79.16;101270.92;1832284;77;21323;-75
2021/04/22 03:15:14;;;;;;;15.53;11.03;;;;;;;6.94;79.13;101265.33;1832257;77;20957;-75
2021/04/22 03:17:43;;;;;;;14.45;12.03;;;;;;;6.93;79.14;101264.91;1832347;78;20929;-76
2021/04/22 03:20:12;;;;;;;14.28;12.33;;;;;;;6.93;79.26;101269.28;1805219;78;21376;-75
2021/04/22 03:22:41;;;;;;;16.48;11.57;;;;;;;6.93;79.42;101272.73;1832387;77;20945;-76
2021/04/22 03:25:13;;;;;;;17.40;13.28;;;;;;;6.94;79.53;101273.61;1832335;77;21708;-75
2021/04/22 03:27:42;;;;;;;17.25;12.88;;;;;;;6.98;79.60;101277.36;1832164;77;20938;-74
2021/04/22 03:30:13;;;;;;;22.85;15.88;;;;;;;7.03;79.63;101280.66;1832319;78;21006;-76
2021/04/22 03:32:41;;;;;;;31.75;20.00;;;;;;;7.09;79.61;101287.85;1832342;77;20926;-74
2021/04/22 03:35:10;;;;;;;26.02;20.65;;;;;;;7.12;79.62;101290.38;1832351;78;20926;-75
2021/04/22 03:37:39;;;;;;;31.15;21.30;;;;;;;7.15;79.63;101295.02;1832442;77;21343;-74
2021/04/22 03:40:10;;;;;;;29.67;21.68;;;;;;;7.26;79.64;101295.94;1832333;78;21428;-76
2021/04/22 03:42:37;;;;;;;23.30;19.15;;;;;;;7.40;79.55;101297.63;1832295;77;20962;-76
2021/04/22 03:45:09;;;;;;;22.70;17.82;;;;;;;7.57;79.25;101306.59;1832247;78;20978;-75
2021/04/22 03:50:48;;;;;;;20.95;16.52;;;;;;;7.96;78.34;101305.58;1761085;79;21047;-75
2021/04/22 03:53:21;;;;;;;21.30;17.35;;;;;;;8.19;77.49;101312.98;1710542;84;20957;-76
2021/04/22 03:55:52;;;;;;;18.20;15.90;;;;;;;8.38;76.96;101312.66;1753698;81;21387;-76
2021/04/22 03:58:20;;;;;;;23.47;16.07;;;;;;;8.61;76.32;101314.83;1753673;81;21037;-75
2021/04/22 04:00:48;;;;;;;17.57;13.58;;;;;;;8.84;75.47;101323.03;1680474;84;22470;-76
2021/04/22 04:03:16;;;;;;;19.62;13.65;;;;;;;9.06;74.70;101318.59;1753635;81;21380;-76
2021/04/22 04:05:45;;;;;;;15.35;12.75;;;;;;;9.33;74.03;101323.09;1753532;81;20925;-76
2021/04/22 04:08:14;;;;;;;17.42;12.82;;;;;;;9.63;73.14;101324.45;1753719;81;21529;-77
2021/04/22 04:10:42;;;;;;;16.30;12.58;;;;;;;9.88;72.28;101328.12;1680534;84;21013;-77
2021/04/22 04:13:11;;;;;;;15.50;13.72;;;;;;;10.06;71.53;101320.70;1753625;81;20989;-77
2021/04/22 04:15:45;;;;;;;15.72;14.03;;;;;;;10.27;70.77;101328.05;1753675;81;21369;-77
2021/04/22 04:18:10;;;;;;;19.80;15.95;;;;;;;10.47;70.20;101333.68;1753426;81;21596;-75
2021/04/22 04:20:39;;;;;;;21.17;16.30;;;;;;;10.65;69.57;101331.06;1680888;84;20958;-76
2021/04/22 04:23:08;;;;;;;18.95;16.02;;;;;;;10.81;69.04;101330.72;1753615;81;20941;-76
2021/04/22 04:25:36;;;;;;;20.25;15.15;;;;;;;11.02;68.38;101337.97;1753684;81;20906;-77
2021/04/22 04:28:05;;;;;;;22.05;15.50;;;;;;;11.25;67.99;101342.06;1753612;81;22739;-76
2021/04/22 04:30:33;;;;;;;18.80;16.50;;;;;;;11.52;67.39;101345.03;1680496;84;21049;-75
2021/04/22 04:33:02;;;;;;;20.68;15.60;;;;;;;11.86;66.68;101345.03;1753677;81;20989;-75
2021/04/22 04:35:30;;;;;;;20.32;17.32;;;;;;;12.19;65.78;101350.27;1753591;81;20997;-76
2021/04/22 04:37:58;;;;;;;21.95;17.85;;;;;;;12.54;64.43;101352.25;1753910;81;20889;-75
2021/04/22 04:40:26;;;;;;;23.55;20.60;;;;;;;12.86;63.64;101348.23;1680656;84;21791;-75
2021/04/22 04:42:55;;;;;;;24.05;19.90;;;;;;;13.22;62.78;101349.64;1753646;81;21024;-74
2021/04/22 04:45:23;;;;;;;26.10;22.55;;;;;;;13.61;61.69;101348.23;1753720;81;21021;-74
2021/04/22 04:47:51;;;;;;;30.97;25.27;;;;;;;13.95;60.37;101348.30;1680466;84;21059;-74
2021/04/22 04:50:20;;;;;;;32.75;26.87;;;;;;;14.25;59.51;101353.44;1753625;81;21406;-74
2021/04/22 04:52:51;;;;;;;32.83;28.73;;;;;;;14.57;58.57;101354.98;1753689;80;21195;-75
2021/04/22 04:55:20;;;;;;;30.75;27.55;;;;;;;14.88;57.47;101359.09;1753630;81;21037;-75
2021/04/22 04:57:49;;;;;;;30.80;24.77;;;;;;;15.13;56.75;101354.33;1753706;81;20952;-77
2021/04/22 05:00:20;;;;;;;25.23;22.25;;;;;;;15.38;55.91;101361.42;1711206;82;21038;-76
2021/04/22 05:02:51;;;;;;;21.73;19.45;;;;;;;15.64;55.38;101359.64;1711144;82;21046;-75
2021/04/22 05:05:19;;;;;;;19.77;16.52;;;;;;;15.95;54.53;101362.81;1711249;83;21367;-75
2021/04/22 05:07:48;;;;;;;22.93;15.83;;;;;;;16.24;53.95;101362.54;1709684;84;20975;-75
2021/04/22 05:10:16;;;;;;;14.58;12.33;;;;;;;16.49;52.99;101366.89;1710814;84;21023;-76
2021/04/22 05:12:44;;;;;;;14.43;12.90;;;;;;;16.74;52.38;101368.57;1753888;81;21119;-75
2021/04/22 05:15:14;;;;;;;11.45;10.10;;;;;;;16.96;51.68;101371.38;1754315;81;20947;-76
2021/04/22 05:17:43;;;;;;;12.63;11.03;;;;;;;17.20;51.22;101366.00;1714393;83;21279;-77
2021/04/22 05:20:14;;;;;;;12.98;11.68;;;;;;;17.49;50.66;101373.53;1714736;82;20974;-76
2021/04/22 05:22:42;;;;;;;11.83;10.75;;;;;;;17.75;49.88;101372.00;1714787;82;21069;-76
2021/04/22 05:25:10;;;;;;;16.20;11.22;;;;;;;17.98;49.48;101374.19;1712884;82;21083;-77
2021/04/22 05:27:40;;;;;;;12.10;10.03;;;;;;;18.22;48.68;101372.23;1713899;81;21054;-76
2021/04/22 05:30:10;;;;;;;11.43;10.32;;;;;;;18.42;48.22;101383.06;1757221;80;21198;-76
2021/04/22 05:32:39;;;;;;;12.80;9.90;;;;;;;18.66;47.54;101376.73;1714408;81;21018;-76
2021/04/22 05:35:09;;;;;;;13.90;9.68;;;;;;;18.89;47.13;101374.35;1713149;82;20940;-76
2021/04/22 05:37:39;;;;;;;11.93;10.30;;;;;;;19.13;46.49;101372.80;1710833;84;21082;-75
2021/04/22 05:40:08;;;;;;;10.53;9.30;;;;;;;19.28;46.14;101369.83;1714268;81;20920;-75
2021/04/22 05:42:36;;;;;;;10.35;8.88;;;;;;;19.44;45.75;101373.69;1757338;80;21376;-75
2021/04/22 05:45:06;;;;;;;10.45;9.45;;;;;;;19.61;45.42;101378.91;1757319;80;20983;-75
2021/04/22 05:47:34;;;;;;;11.10;10.00;;;;;;;19.80;45.17;101377.33;1757314;80;20954;-75
2021/04/22 05:50:04;;;;;;;11.00;9.83;;;;;;;20.02;44.62;101378.96;1757402;80;21069;-76
2021/04/22 05:52:32;;;;;;;12.35;11.15;;;;;;;20.27;44.06;101373.63;1757335;80;21010;-77
2021/04/22 05:55:02;;;;;;;12.75;10.30;;;;;;;20.53;43.69;101381.95;1757163;81;21599;-76
2021/04/22 05:57:31;;;;;;;12.53;10.32;;;;;;;20.79;42.99;101383.63;1712421;82;21010;-76
2021/04/22 06:00:00;;;;;;;13.00;11.57;;;;;;;21.09;42.54;101377.78;1711208;82;21495;-76
2021/04/22 06:02:28;;;;;;;15.30;12.47;;;;;;;21.36;41.63;101385.53;1711259;83;20946;-74
2021/04/22 06:04:56;;;;;;;14.30;12.90;;;;;;;21.55;40.68;101378.85;1711196;83;21050;-74
2021/04/22 06:07:25;;;;;;;19.15;13.80;;;;;;;21.68;40.16;101383.38;1709541;82;21223;-77
2021/04/22 06:09:53;;;;;;;16.60;14.95;;;;;;;21.76;40.06;101392.47;1710655;82;21043;-76
2021/04/22 06:12:21;;;;;;;15.50;13.10;;;;;;;21.78;40.22;101386.00;1753664;80;21017;-78
2021/04/22 06:14:49;;;;;;;13.08;11.80;;;;;;;21.84;40.37;101387.25;1753637;80;21065;-76
2021/04/22 06:17:18;;;;;;;12.85;11.53;;;;;;;21.86;39.93;101390.63;1753533;81;21081;-76
2021/04/22 06:19:46;;;;;;;13.68;12.13;;;;;;;21.85;39.72;101395.59;1753578;81;21379;-75
2021/04/22 06:22:14;;;;;;;11.35;10.03;;;;;;;21.84;39.73;101396.09;1753530;81;21008;-76
2021/04/22 06:26:18;;;;;;;10.28;9.38;;;;;;;21.95;39.28;101400.41;1813696;77;22295;-75
2021/04/22 06:28:48;;;;;;;10.15;9.25;;;;;;;21.89;39.12;101401.83;1786386;80;20997;-75
2021/04/22 06:31:17;;;;;;;9.50;8.65;;;;;;;21.98;39.46;101409.95;1760199;80;21228;-76
2021/04/22 06:33:45;;;;;;;10.50;8.95;;;;;;;22.22;39.56;101404.12;1784387;80;20978;-75
2021/04/22 06:36:15;;;;;;;8.50;7.25;;;;;;;22.52;38.82;101396.25;1784181;79;21525;-75
2021/04/22 06:38:43;;;;;;;7.50;6.70;;;;;;;22.63;38.33;101398.70;1784077;80;20946;-74
2021/04/22 06:41:12;;;;;;;7.72;7.05;;;;;;;22.68;37.87;101396.94;1784154;80;20934;-75
2021/04/22 06:43:41;;;;;;;6.90;6.40;;;;;;;22.84;38.27;101413.13;1784082;80;21356;-75
2021/04/22 06:46:11;;;;;;;6.47;5.80;;;;;;;23.08;38.07;101415.22;1784065;80;21372;-80
2021/04/22 06:48:40;;;;;;;5.95;5.45;;;;;;;23.23;37.38;101417.33;1784142;80;20935;-74
2021/04/22 06:51:09;;;;;;;6.47;5.87;;;;;;;23.27;37.04;101420.87;1784104;79;20930;-76
2021/04/22 06:53:39;;;;;;;4.90;4.50;;;;;;;23.18;36.99;101426.66;1784152;80;20950;-76
2021/04/22 06:56:10;;;;;;;7.40;5.78;;;;;;;23.11;36.91;101434.13;1784099;79;21364;-76
2021/04/22 06:58:39;;;;;;;5.90;5.40;;;;;;;23.09;36.99;101423.57;1784003;79;21022;-77
2021/04/22 07:01:07;;;;;;;5.85;5.42;;;;;;;23.11;36.87;101432.79;1784157;80;21002;-77
2021/04/22 07:03:38;;;;;;;6.20;5.70;;;;;;;23.10;37.37;101425.27;1784068;79;21050;-76
2021/04/22 07:06:06;;;;;;;5.60;5.20;;;;;;;23.28;37.69;101425.24;1784193;80;20937;-77
2021/04/22 07:08:34;;;;;;;6.75;6.10;;;;;;;23.44;37.61;101430.37;1784155;80;21554;-77
2021/04/22 07:11:04;;;;;;;9.80;9.00;;;;;;;23.60;36.72;101431.81;1784093;79;21372;-76
2021/04/22 07:13:31;;;;;;;9.85;8.50;;;;;;;23.69;36.54;101437.56;1784084;80;20903;-76
2021/04/22 07:16:02;;;;;;;6.30;5.75;;;;;;;23.68;36.41;101441.73;1784027;80;21355;-76
2021/04/22 07:18:30;;;;;;;7.03;5.78;;;;;;;23.68;36.38;101449.28;1784062;79;20992;-82
2021/04/22 07:20:59;;;;;;;8.38;7.50;;;;;;;23.47;36.49;101446.95;1784408;80;21385;-78
2021/04/22 07:23:28;;;;;;;8.23;6.15;;;;;;;23.37;37.15;101445.72;1784090;80;21478;-78
2021/04/22 07:25:56;;;;;;;5.80;5.40;;;;;;;23.54;37.15;101444.02;1780281;80;21431;-76
2021/04/22 07:28:24;;;;;;;24.15;18.98;;;;;;;23.81;36.64;101448.88;1779152;80;21025;-80
2021/04/22 07:30:55;;;;;;;12.43;11.12;;;;;;;23.87;36.31;101450.09;1778464;80;21030;-76
2021/04/22 07:33:22;;;;;;;9.85;8.90;;;;;;;23.92;36.28;101447.77;1779329;79;21371;-81
2021/04/22 07:35:50;;;;;;;11.97;10.53;;;;;;;23.87;36.42;101446.07;1778872;80;20926;-78
2021/04/22 07:38:20;;;;;;;14.70;13.08;;;;;;;23.81;36.28;101444.02;1778493;80;21416;-77
2021/04/22 07:40:47;;;;;;;12.85;11.55;;;;;;;23.83;36.58;101446.04;1778475;80;20915;-77
2021/04/22 07:43:16;;;;;;;10.75;7.47;;;;;;;23.87;36.65;101448.75;1778541;80;20950;-79
2021/04/22 07:45:45;;;;;;;12.75;11.53;;;;;;;24.03;36.97;101447.99;1778498;80;21362;-85
2021/04/22 07:48:13;;;;;;;10.32;9.23;;;;;;;24.35;35.96;101456.18;1778652;79;20943;-77
2021/04/22 07:50:41;;;;;;;12.58;10.88;;;;;;;24.49;35.80;101448.04;1778494;80;20903;-78
2021/04/22 07:53:10;;;;;;;5.37;5.00;;;;;;;24.56;35.51;101450.40;1778420;79;20950;-82
2021/04/22 07:55:43;;;;;;;6.65;6.15;;;;;;;24.51;34.72;101451.91;1778430;80;20959;-79
2021/04/22 07:58:13;;;;;;;5.78;5.28;;;;;;;24.23;35.54;101449.92;1778808;80;21259;-76
2021/04/22 08:00:44;;;;;;;6.58;6.05;;;;;;;24.08;35.75;101453.22;1778478;79;21009;-78
2021/04/22 08:03:13;;;;;;;7.53;6.83;;;;;;;24.05;36.13;101449.51;1778534;79;21380;-77
2021/04/22 08:05:44;;;;;;;9.13;8.33;;;;;;;24.09;36.24;101443.34;1778519;80;21348;-78
2021/04/22 08:08:13;;;;;;;6.75;6.22;;;;;;;24.14;36.31;101446.37;1778541;79;20934;-78
2021/04/22 08:10:45;;;;;;;18.70;16.85;;;;;;;24.23;35.88;101449.41;1778537;80;21352;-78
2021/04/22 08:13:15;;;;;;;10.98;9.88;;;;;;;24.31;35.81;101452.65;1778483;79;20953;-78
2021/04/22 08:15:45;;;;;;;7.12;6.53;;;;;;;24.37;35.99;101451.50;1779130;79;20939;-77
2021/04/22 08:18:15;;;;;;;6.25;5.70;;;;;;;24.40;35.33;101446.30;1779592;79;21033;-81
2021/04/22 08:20:43;;;;;;;7.15;6.40;;;;;;;24.14;35.63;101446.37;1778749;79;20926;-79
2021/04/22 08:23:12;;;;;;;7.35;6.75;;;;;;;23.94;35.98;101445.77;1778638;80;21368;-83
2021/04/22 08:25:46;;;;;;;8.98;8.25;;;;;;;23.91;36.37;101445.59;1778501;80;20963;-82
2021/04/22 08:28:17;;;;;;;7.28;6.67;;;;;;;23.94;36.63;101445.26;1778824;80;20970;-81
2021/04/22 08:30:53;;;;;;;7.30;6.28;;;;;;;24.13;36.75;101444.20;1778786;79;21030;-79
2021/04/22 08:33:23;;;;;;;7.28;6.67;;;;;;;24.24;35.99;101442.23;1778790;79;20997;-80
2021/04/22 08:35:51;;;;;;;6.53;5.92;;;;;;;24.12;36.12;101439.84;1778656;79;21356;-79
2021/04/22 08:38:19;;;;;;;6.53;5.80;;;;;;;24.07;36.63;101439.98;1778353;80;20951;-80
2021/04/22 08:40:48;;;;;;;6.17;5.58;;;;;;;23.94;36.48;101445.26;1778509;80;20946;-80
2021/04/22 08:43:16;;;;;;;8.70;7.70;;;;;;;23.98;36.26;101430.55;1778532;80;21014;-80
2021/04/22 08:45:45;;;;;;;9.58;8.68;;;;;;;23.99;36.66;101437.61;1778643;80;20998;-78
2021/04/22 08:48:13;;;;;;;11.97;10.05;;;;;;;24.04;36.28;101434.95;1778455;80;21361;-80
2021/04/22 08:50:44;;;;;;;7.12;5.65;;;;;;;24.18;35.86;101437.01;1778560;80;20950;-80
2021/04/22 08:53:25;;;;;;;6.83;6.33;;;;;;;24.24;35.68;101433.69;1778676;80;20940;-77
2021/04/22 08:55:53;;;;;;;22.15;19.40;;;;;;;24.27;35.59;101432.02;1779373;80;20938;-80
2021/04/22 08:58:21;;;;;;;9.00;8.18;;;;;;;24.13;35.76;101436.66;1781999;80;20926;-80
2021/04/22 09:01:03;;;;;;;11.73;10.35;;;;;;;23.93;35.93;101429.37;1782118;79;21238;-80
2021/04/22 09:03:32;;;;;;;7.15;6.45;;;;;;;23.89;36.68;101431.52;1779980;80;20958;-80
2021/04/22 09:06:01;;;;;;;9.68;8.20;;;;;;;23.90;35.97;101423.83;1778695;80;20958;-80
2021/04/22 09:08:50;;;;;;;8.08;6.80;;;;;;;23.89;36.48;101432.02;1778550;80;20962;-80
2021/04/22 09:11:23;;;;;;;7.62;6.85;;;;;;;23.96;36.18;101423.67;1778716;80;20903;-80
2021/04/22 09:13:52;;;;;;;8.03;7.33;;;;;;;24.10;36.84;101432.94;1778502;80;21970;-80
2021/04/22 09:16:28;;;;;;;9.58;8.15;;;;;;;24.24;35.69;101429.67;1778387;79;20970;-83
2021/04/22 09:19:01;;;;;;;11.57;9.65;;;;;;;24.30;35.36;101419.64;1778428;80;21002;-81
2021/04/22 09:21:33;;;;;;;7.53;5.47;;;;;;;24.25;35.43;101421.12;1776599;80;20958;-80
2021/04/22 09:24:14;;;;;;;8.55;6.87;;;;;;;24.23;34.56;101415.91;1778532;80;20926;-79
2021/04/22 09:26:52;;;;;;;8.15;6.95;;;;;;;24.11;35.49;101416.71;1771421;80;22375;-78
2021/04/22 09:29:45;;;;;;;7.47;6.78;;;;;;;24.10;35.98;101412.84;1769947;80;20975;-78
2021/04/22 09:32:20;;;;;;;14.38;11.20;;;;;;;24.20;36.50;101418.42;1769990;81;20979;-77
2021/04/22 09:34:55;;;;;;;8.10;7.30;;;;;;;24.43;35.65;101421.00;1770022;79;20970;-78
2021/04/22 09:37:42;;;;;;;15.90;14.18;;;;;;;24.57;35.40;101412.38;1770048;81;21109;-79
2021/04/22 09:40:21;;;;;;;7.17;6.47;;;;;;;24.71;36.11;101413.05;1770041;81;21186;-80
2021/04/22 09:42:49;;;;;;;7.83;6.55;;;;;;;24.86;35.30;101410.56;1770051;81;20958;-80
2021/04/22 09:45:21;;;;;;;5.20;4.80;;;;;;;25.07;35.05;101410.56;1770074;80;21507;-78
2021/04/22 09:47:51;;;;;;;5.87;5.37;;;;;;;25.26;33.82;101409.41;1767519;80;20938;-82
2021/04/22 09:50:22;;;;;;;6.67;6.05;;;;;;;25.40;33.89;101416.28;1769941;81;20903;-77
2021/04/22 09:52:54;;;;;;;6.40;5.80;;;;;;;25.52;34.08;101410.55;1769916;79;21413;-77
2021/04/22 09:55:26;;;;;;;10.83;5.67;;;;;;;25.56;32.70;101406.00;1770484;79;20903;-84
2021/04/22 09:57:55;;;;;;;6.35;5.85;;;;;;;25.50;33.04;101411.22;1769994;79;21046;-81
2021/04/22 10:00:28;;;;;;;4.60;3.87;;;;;;;25.35;33.76;101409.24;1769911;81;20927;-81
2021/04/22 10:02:59;;;;;;;5.10;4.70;;;;;;;25.29;32.63;101399.69;1770108;79;20986;-80
2021/04/22 10:05:32;;;;;;;6.10;5.47;;;;;;;25.37;33.19;101399.17;1769896;81;21429;-85
2021/04/22 10:08:10;;;;;;;5.25;4.75;;;;;;;25.46;33.20;101399.14;1770099;79;21389;-82
2021/04/22 10:11:04;;;;;;;4.47;4.17;;;;;;;25.50;32.40;101397.31;1769993;79;20900;-84
2021/04/22 10:13:50;;;;;;;8.38;3.87;;;;;;;25.43;32.11;101399.84;1770085;81;21002;-83
2021/04/22 10:16:19;;;;;;;5.30;3.80;;;;;;;25.35;32.53;101401.19;1770024;81;21006;-81
2021/04/22 10:18:48;;;;;;;4.45;3.45;;;;;;;25.40;32.06;101397.48;1770072;81;22266;-83
2021/04/22 10:21:17;;;;;;;3.58;3.27;;;;;;;25.42;31.49;101395.46;1769956;81;20974;-80
2021/04/22 10:23:50;;;;;;;5.60;4.67;;;;;;;25.38;30.99;101400.84;1770194;79;20924;-84
2021/04/22 10:26:18;;;;;;;7.00;4.12;;;;;;;25.37;30.61;101398.34;1770007;79;20995;-79
2021/04/22 10:28:47;;;;;;;6.97;3.70;;;;;;;25.41;31.29;101388.43;1770323;79;21003;-84
2021/04/22 10:31:16;;;;;;;8.48;4.50;;;;;;;25.34;31.45;101395.98;1770200;81;21434;-83
2021/04/22 10:33:44;;;;;;;3.62;3.42;;;;;;;25.32;31.09;101393.45;1770012;80;21034;-82
2021/04/22 10:36:14;;;;;;;4.67;4.00;;;;;;;25.33;30.86;101395.15;1751124;80;20955;-85
2021/04/22 10:38:42;;;;;;;5.05;4.00;;;;;;;25.28;31.22;101391.28;1750322;81;20903;-82
2021/04/22 10:41:11;;;;;;;3.72;3.33;;;;;;;25.25;31.01;101386.27;1750762;80;20923;-82
2021/04/22 10:43:40;;;;;;;4.97;3.52;;;;;;;25.31;29.69;101388.27;1770183;81;22155;-83
2021/04/22 10:46:10;;;;;;;5.03;3.67;;;;;;;25.21;29.56;101383.92;1770010;81;21483;-81
2021/04/22 10:48:39;;;;;;;3.10;2.90;;;;;;;25.18;31.07;101386.06;1769964;79;20947;-88
2021/04/22 10:51:08;;;;;;;4.30;3.20;;;;;;;25.19;30.64;101379.70;1770047;81;21368;-82
2021/04/22 10:53:39;;;;;;;3.50;3.08;;;;;;;25.07;30.99;101384.56;1770147;81;20946;-86
2021/04/22 10:56:10;;;;;;;3.77;3.35;;;;;;;25.03;31.03;101381.88;1769952;79;21428;-84
2021/04/22 10:58:43;;;;;;;3.10;2.87;;;;;;;25.03;30.63;101378.71;1769887;79;21037;-85
2021/04/22 11:01:13;;;;;;;3.70;2.95;;;;;;;25.06;31.03;101369.95;1769965;79;20891;-85
2021/04/22 11:03:46;;;;;;;3.08;2.87;;;;;;;25.08;30.57;101371.48;1769949;81;20966;-83
2021/04/22 11:06:19;;;;;;;3.58;3.30;;;;;;;25.14;30.16;101363.25;1769985;79;21053;-83
2021/04/22 11:08:54;;;;;;;;;;;;;;;25.16;29.35;101368.78;1772650;79;21443;-82
2021/04/22 11:11:28;;;;;;;3.30;2.87;;;;;;;25.16;28.77;101363.41;1770072;81;20151;-83
2021/04/22 11:14:15;;;;;;;3.75;3.00;;;;;;;25.10;30.35;101362.77;1770639;80;21088;-84
2021/04/22 11:16:52;;;;;;;3.37;3.08;;;;;;;25.02;28.48;101362.25;1746305;81;21494;-83
2021/04/22 11:19:25;;;;;;;3.75;3.45;;;;;;;24.87;28.10;101361.25;1770148;80;20943;-85
2021/04/22 11:22:01;;;;;;;;;;;;;;;24.79;28.14;101356.73;1772879;81;22273;-85
2021/04/22 11:24:42;;;;;;;7.05;3.47;;;;;;;24.67;28.76;101350.02;1769875;80;20175;-79
2021/04/22 11:27:14;;;;;;;4.25;3.95;;;;;;;24.57;29.49;101348.01;1769955;80;20959;-80
2021/04/22 11:29:57;;;;;;;3.90;3.60;;;;;;;24.60;29.63;101349.01;1769951;79;20915;-80
2021/04/22 11:32:36;;;;;;;3.50;3.20;;;;;;;24.58;29.95;101344.30;1770153;81;21072;-77
2021/04/22 11:35:12;;;;;;;3.72;3.10;;;;;;;24.57;30.51;101342.14;1769947;79;21158;-77
2021/04/22 11:37:44;;;;;;;3.42;3.00;;;;;;;24.54;29.86;101343.79;1769941;81;20935;-77